createdAt,value
2019-01-10T00:00:34.604Z,102397.77
2019-01-10T00:03:03.646Z,102396.27
2019-01-10T00:05:32.630Z,102399.38
2019-01-10T00:08:01.794Z,102396.50
2019-01-10T00:10:30.835Z,102403.16
2019-01-10T00:12:59.881Z,102401.37
2019-01-10T00:15:28.951Z,102410.27
2019-01-10T00:17:58.299Z,102409.10
2019-01-10T00:20:27.343Z,102409.02
2019-01-10T00:22:56.953Z,102403.57
2019-01-10T00:25:26.022Z,102410.86
2019-01-10T00:27:55.301Z,102412.08
2019-01-10T00:30:24.408Z,102416.30
2019-01-10T00:32:53.458Z,102420.89
2019-01-10T00:35:22.595Z,102415.72
2019-01-10T00:37:51.651Z,102411.22
2019-01-10T00:40:20.659Z,102416.80
2019-01-10T00:42:50.066Z,102422.65
2019-01-10T00:45:19.348Z,102424.18
2019-01-10T00:47:48.593Z,102433.22
2019-01-10T00:50:19.970Z,102436.28
2019-01-10T00:52:49.047Z,102429.80
2019-01-10T00:55:18.091Z,102435.11
2019-01-10T00:57:47.221Z,102438.53
2019-01-10T01:00:27.470Z,102442.72
2019-01-10T01:02:56.623Z,102443.70
2019-01-10T01:05:25.637Z,102445.06
2019-01-10T01:07:54.687Z,102451.31
2019-01-10T01:10:26.255Z,102447.84
2019-01-10T01:12:58.781Z,102455.36
2019-01-10T01:15:26.212Z,102451.36
2019-01-10T01:17:55.531Z,102436.01
2019-01-10T01:20:25.464Z,102436.69
2019-01-10T01:22:54.589Z,102445.56
2019-01-10T01:25:23.711Z,102438.08
2019-01-10T01:27:52.769Z,102441.38
2019-01-10T01:30:25.428Z,102436.81
2019-01-10T01:32:54.716Z,102448.03
2019-01-10T01:35:24.111Z,102454.09
2019-01-10T01:37:53.114Z,102446.98
2019-01-10T01:40:22.150Z,102439.75
2019-01-10T01:42:51.208Z,102449.52
2019-01-10T01:45:20.716Z,102454.36
2019-01-10T01:47:49.968Z,102455.05
2019-01-10T01:50:23.361Z,102449.98
2019-01-10T01:52:53.617Z,102457.78
2019-01-10T01:55:22.709Z,102460.48
2019-01-10T01:57:51.855Z,102466.62
2019-01-10T02:00:22.705Z,102463.25
2019-01-10T02:02:52.050Z,102459.80
2019-01-10T02:05:21.055Z,102461.80
2019-01-10T02:07:50.618Z,102461.02
2019-01-10T02:10:25.043Z,102467.96
2019-01-10T02:12:54.363Z,102474.67
2019-01-10T02:15:23.474Z,102467.14
2019-01-10T02:17:52.525Z,102470.39
2019-01-10T02:20:21.688Z,102486.67
2019-01-10T02:22:50.740Z,102481.70
2019-01-10T02:25:19.821Z,102483.64
2019-01-10T02:27:48.874Z,102494.25
2019-01-10T02:30:21.018Z,102490.89
2019-01-10T02:32:50.278Z,102501.33
2019-01-10T02:35:19.354Z,102513.66
2019-01-10T02:37:48.716Z,102508.41
2019-01-10T02:40:17.794Z,102508.33
2019-01-10T02:42:46.825Z,102512.38
2019-01-10T02:45:16.869Z,102510.72
2019-01-10T02:47:45.867Z,102509.05
2019-01-10T02:50:22.845Z,102512.94
2019-01-10T02:52:52.279Z,102524.39
2019-01-10T02:55:21.508Z,102514.80
2019-01-10T02:57:50.546Z,102517.19
2019-01-10T03:00:24.181Z,102516.27
2019-01-10T03:02:53.405Z,102522.37
2019-01-10T03:05:22.582Z,102513.36
2019-01-10T03:07:51.865Z,102513.24
2019-01-10T03:10:26.312Z,102517.92
2019-01-10T03:12:55.377Z,102513.24
2019-01-10T03:15:24.658Z,102518.66
2019-01-10T03:17:53.720Z,102513.52
2019-01-10T03:20:23.553Z,102518.45
2019-01-10T03:22:52.590Z,102512.26
2019-01-10T03:25:21.630Z,102513.14
2019-01-10T03:27:50.647Z,102508.12
2019-01-10T03:30:20.440Z,102502.77
2019-01-10T03:32:49.555Z,102507.20
2019-01-10T03:35:18.531Z,102501.72
2019-01-10T03:37:47.685Z,102501.38
2019-01-10T03:40:21.446Z,102501.38
2019-01-10T03:42:50.555Z,102500.86
2019-01-10T03:45:22.930Z,102502.97
2019-01-10T03:47:52.010Z,102495.32
2019-01-10T03:50:21.054Z,102491.68
2019-01-10T03:52:50.071Z,102489.56
2019-01-10T03:55:19.097Z,102505.42
2019-01-10T03:57:48.113Z,102496.58
2019-01-10T04:00:22.426Z,102489.88
2019-01-10T04:02:51.554Z,102490.89
2019-01-10T04:05:21.224Z,102491.68
2019-01-10T04:07:50.261Z,102490.70
2019-01-10T04:10:19.284Z,102491.53
2019-01-10T04:12:48.362Z,102494.31
2019-01-10T04:15:18.302Z,102496.73
2019-01-10T04:17:47.674Z,102495.27
2019-01-10T04:20:18.107Z,102494.59
2019-01-10T04:22:47.140Z,102503.38
2019-01-10T04:25:16.302Z,102504.91
2019-01-10T04:27:45.678Z,102497.45
2019-01-10T04:30:17.141Z,102508.22
2019-01-10T04:32:46.259Z,102501.73
2019-01-10T04:35:15.310Z,102498.67
2019-01-10T04:37:44.402Z,102507.91
2019-01-10T04:40:21.270Z,102509.84
2019-01-10T04:42:50.277Z,102504.30
2019-01-10T04:45:19.401Z,102504.58
2019-01-10T04:47:48.738Z,102504.70
2019-01-10T04:50:17.760Z,102499.28
2019-01-10T04:52:46.794Z,102500.14
2019-01-10T04:55:15.882Z,102497.05
2019-01-10T04:57:45.156Z,102498.76
2019-01-10T05:00:18.390Z,102497.50
2019-01-10T05:02:47.431Z,102494.20
2019-01-10T05:05:16.481Z,102495.80
2019-01-10T05:07:45.571Z,102497.39
2019-01-10T05:10:14.829Z,102489.86
2019-01-10T05:12:43.858Z,102495.33
2019-01-10T05:15:13.364Z,102494.35
2019-01-10T05:17:42.425Z,102493.22
2019-01-10T05:20:14.152Z,102496.38
2019-01-10T05:22:43.192Z,102495.11
2019-01-10T05:25:12.356Z,102497.97
2019-01-10T05:27:41.458Z,102493.41
2019-01-10T05:30:35.747Z,102491.69
2019-01-10T05:33:04.819Z,102503.38
2019-01-10T05:35:33.914Z,102489.88
2019-01-10T05:38:02.994Z,102492.61
2019-01-10T05:40:32.026Z,102499.46
2019-01-10T05:43:01.458Z,102498.42
2019-01-10T05:45:30.526Z,102495.17
2019-01-10T05:47:59.594Z,102504.95
2019-01-10T05:50:28.627Z,102500.20
2019-01-10T05:52:58.068Z,102501.45
2019-01-10T05:55:27.091Z,102507.27
2019-01-10T05:57:56.159Z,102502.03
2019-01-10T06:00:27.406Z,102496.67
2019-01-10T06:02:56.751Z,102507.30
2019-01-10T06:05:26.086Z,102505.41
2019-01-10T06:07:55.164Z,102507.41
2019-01-10T06:10:26.341Z,102511.64
2019-01-10T06:12:55.687Z,102514.77
2019-01-10T06:15:24.976Z,102518.32
2019-01-10T06:17:54.056Z,102523.34
2019-01-10T06:20:23.554Z,102524.69
2019-01-10T06:22:52.705Z,102522.30
2019-01-10T06:25:21.862Z,102525.86
2019-01-10T06:27:50.926Z,102531.43
2019-01-10T06:30:22.154Z,102537.59
2019-01-10T06:32:51.195Z,102527.08
2019-01-10T06:35:21.525Z,102532.91
2019-01-10T06:37:50.600Z,102535.72
2019-01-10T06:40:21.611Z,102542.36
2019-01-10T06:42:50.713Z,102528.67
2019-01-10T06:45:19.923Z,102533.33
2019-01-10T06:47:49.018Z,102542.88
2019-01-10T06:50:18.579Z,102542.82
2019-01-10T06:52:47.850Z,102549.89
2019-01-10T06:55:16.847Z,102539.52
2019-01-10T06:57:45.940Z,102546.25
2019-01-10T07:00:17.686Z,102544.45
2019-01-10T07:02:46.739Z,102548.18
2019-01-10T07:05:15.799Z,102558.34
2019-01-10T07:07:44.834Z,102558.63
2019-01-10T07:10:17.228Z,102566.22
2019-01-10T07:12:46.229Z,102566.02
2019-01-10T07:15:15.425Z,102573.02
2019-01-10T07:17:44.475Z,102568.86
2019-01-10T07:20:13.863Z,102567.14
2019-01-10T07:22:47.922Z,102563.58
2019-01-10T07:25:16.884Z,102563.13
2019-01-10T07:27:46.274Z,102569.46
2019-01-10T07:30:18.834Z,102566.89
2019-01-10T07:32:47.841Z,102567.75
2019-01-10T07:35:16.849Z,102575.59
2019-01-10T07:37:51.440Z,102564.89
2019-01-10T07:40:20.485Z,102575.08
2019-01-10T07:42:49.558Z,102577.31
2019-01-10T07:45:26.064Z,102575.09
2019-01-10T07:47:55.135Z,102586.64
2019-01-10T07:50:35.110Z,102583.73
2019-01-10T07:53:05.485Z,102590.07
2019-01-10T07:55:34.497Z,102591.52
2019-01-10T07:58:03.496Z,102585.30
2019-01-10T08:00:32.557Z,102580.83
2019-01-10T08:03:01.574Z,102573.78
2019-01-10T08:05:30.576Z,102578.87
2019-01-10T08:07:59.532Z,102583.22
2019-01-10T08:10:28.539Z,102578.27
2019-01-10T08:12:57.781Z,102584.39
2019-01-10T08:15:26.778Z,102588.73
2019-01-10T08:17:55.826Z,102590.45
2019-01-10T08:20:24.920Z,102596.48
2019-01-10T08:22:53.959Z,102596.78
2019-01-10T08:25:23.005Z,102593.59
2019-01-10T08:27:52.050Z,102596.16
2019-01-10T08:30:23.437Z,102600.91
2019-01-10T08:32:52.443Z,102598.45
2019-01-10T08:35:24.295Z,102592.79
2019-01-10T08:37:53.242Z,102600.45
2019-01-10T08:40:22.595Z,102592.79
2019-01-10T08:42:51.615Z,102591.08
2019-01-10T08:45:22.109Z,102592.44
2019-01-10T08:47:51.351Z,102601.92
2019-01-10T08:50:22.863Z,102600.21
2019-01-10T08:52:51.922Z,102595.18
2019-01-10T08:55:20.939Z,102603.08
2019-01-10T08:57:50.054Z,102601.53
2019-01-10T09:00:20.743Z,102604.68
2019-01-10T09:02:49.806Z,102600.00
2019-01-10T09:05:18.893Z,102601.54
2019-01-10T09:07:47.906Z,102599.08
2019-01-10T09:10:20.236Z,102602.50
2019-01-10T09:12:49.322Z,102604.20
2019-01-10T09:15:25.265Z,102605.41
2019-01-10T09:17:50.066Z,102613.81
2019-01-10T09:20:19.112Z,102612.91
2019-01-10T09:22:48.214Z,102610.33
2019-01-10T09:25:17.881Z,102611.30
2019-01-10T09:27:47.052Z,102603.83
2019-01-10T09:30:18.036Z,102602.96
2019-01-10T09:32:47.227Z,102607.92
2019-01-10T09:35:16.319Z,102605.47
2019-01-10T09:37:45.716Z,102610.39
2019-01-10T09:40:16.562Z,102607.19
2019-01-10T09:42:45.715Z,102609.81
2019-01-10T09:45:17.020Z,102611.08
2019-01-10T09:47:46.090Z,102607.73
2019-01-10T09:50:16.721Z,102606.91
2019-01-10T09:52:46.260Z,102599.46
2019-01-10T09:55:15.387Z,102609.77
2019-01-10T09:57:44.518Z,102605.41
2019-01-10T10:00:17.162Z,102610.36
2019-01-10T10:02:46.259Z,102617.22
2019-01-10T10:05:15.656Z,102611.97
2019-01-10T10:07:44.797Z,102620.43
2019-01-10T10:10:16.006Z,102614.47
2019-01-10T10:12:45.467Z,102623.48
2019-01-10T10:15:16.553Z,102622.06
2019-01-10T10:17:45.638Z,102620.69
2019-01-10T10:20:17.149Z,102625.59
2019-01-10T10:22:46.178Z,102620.45
2019-01-10T10:25:15.198Z,102629.37
2019-01-10T10:27:44.405Z,102629.27
2019-01-10T10:30:17.322Z,102623.20
2019-01-10T10:32:46.394Z,102627.09
2019-01-10T10:35:16.168Z,102622.68
2019-01-10T10:37:45.493Z,102614.39
2019-01-10T10:40:16.862Z,102625.34
2019-01-10T10:42:46.050Z,102617.23
2019-01-10T10:45:16.940Z,102622.01
2019-01-10T10:47:46.268Z,102618.22
2019-01-10T10:50:17.834Z,102613.80
2019-01-10T10:52:47.193Z,102614.80
2019-01-10T10:55:16.392Z,102609.20
2019-01-10T10:57:45.437Z,102608.48
2019-01-10T11:00:17.686Z,102610.91
2019-01-10T11:02:46.996Z,102607.67
2019-01-10T11:05:16.145Z,102613.03
2019-01-10T11:07:46.430Z,102607.13
2019-01-10T11:10:17.142Z,102604.16
2019-01-10T11:12:46.349Z,102610.19
2019-01-10T11:15:15.362Z,102608.56
2019-01-10T11:17:44.619Z,102610.17
2019-01-10T11:20:15.299Z,102609.81
2019-01-10T11:22:45.461Z,102611.61
2019-01-10T11:25:19.711Z,102611.52
2019-01-10T11:27:48.923Z,102611.80
2019-01-10T11:30:18.961Z,102613.78
2019-01-10T11:32:48.010Z,102610.47
2019-01-10T11:35:17.221Z,102602.18
2019-01-10T11:37:46.298Z,102598.22
2019-01-10T11:40:18.040Z,102604.53
2019-01-10T11:42:47.325Z,102597.80
2019-01-10T11:45:18.090Z,102593.98
2019-01-10T11:47:47.134Z,102588.12
2019-01-10T11:50:16.278Z,102591.32
2019-01-10T11:52:45.708Z,102582.58
2019-01-10T11:55:14.736Z,102587.13
2019-01-10T11:57:44.117Z,102583.44
2019-01-10T12:00:19.192Z,102580.19
2019-01-10T12:02:48.232Z,102575.05
2019-01-10T12:05:17.241Z,102571.18
2019-01-10T12:07:46.290Z,102566.32
2019-01-10T12:10:15.644Z,102565.19
2019-01-10T12:12:44.656Z,102570.28
2019-01-10T12:15:14.210Z,102573.84
2019-01-10T12:17:43.570Z,102565.33
2019-01-10T12:20:13.366Z,102567.41
2019-01-10T12:22:42.475Z,102560.38
2019-01-10T12:25:13.040Z,102554.49
2019-01-10T12:27:42.098Z,102557.63
2019-01-10T12:30:16.872Z,102556.12
2019-01-10T12:32:45.937Z,102544.53
2019-01-10T12:35:15.995Z,102539.81
2019-01-10T12:37:45.028Z,102543.15
2019-01-10T12:40:14.484Z,102543.15
2019-01-10T12:42:43.819Z,102539.77
2019-01-10T12:45:13.629Z,102537.05
2019-01-10T12:47:42.668Z,102542.09
2019-01-10T12:50:15.710Z,102534.61
2019-01-10T12:52:44.773Z,102540.52
2019-01-10T12:55:13.828Z,102534.83
2019-01-10T12:57:42.970Z,102535.89
2019-01-10T13:00:15.550Z,102542.97
2019-01-10T13:02:44.797Z,102543.48
2019-01-10T13:05:14.592Z,102540.55
2019-01-10T13:07:43.646Z,102529.52
2019-01-10T13:10:15.185Z,102520.99
2019-01-10T13:12:44.294Z,102521.80
2019-01-10T13:15:16.189Z,102514.94
2019-01-10T13:17:45.204Z,102512.58
2019-01-10T13:20:14.466Z,102511.36
2019-01-10T13:22:43.461Z,102507.28
2019-01-10T13:25:14.310Z,102500.97
2019-01-10T13:27:43.377Z,102500.52
2019-01-10T13:30:15.637Z,102497.75
2019-01-10T13:32:44.686Z,102499.73
2019-01-10T13:35:13.997Z,102495.31
2019-01-10T13:37:43.163Z,102485.62
2019-01-10T13:40:12.462Z,102483.30
2019-01-10T13:42:41.485Z,102494.20
2019-01-10T13:45:11.744Z,102501.44
2019-01-10T13:47:41.304Z,102502.89
2019-01-10T13:50:13.933Z,102498.25
2019-01-10T13:52:42.942Z,102504.20
2019-01-10T13:55:13.547Z,102506.59
2019-01-10T13:57:42.555Z,102500.73
2019-01-10T14:00:15.688Z,102494.47
2019-01-10T14:02:44.735Z,102494.06
2019-01-10T14:05:13.774Z,102503.61
2019-01-10T14:07:42.912Z,102494.42
2019-01-10T14:10:13.338Z,102499.88
2019-01-10T14:12:42.352Z,102510.69
2019-01-10T14:15:13.868Z,102501.00
2019-01-10T14:17:43.029Z,102504.06
2019-01-10T14:20:12.605Z,102503.30
2019-01-10T14:22:41.609Z,102498.02
2019-01-10T14:25:10.720Z,102494.32
2019-01-10T14:27:39.780Z,102493.25
2019-01-10T14:30:19.370Z,102497.94
2019-01-10T14:32:48.391Z,102501.35
2019-01-10T14:35:17.697Z,102496.39
2019-01-10T14:37:46.704Z,102501.27
2019-01-10T14:40:15.754Z,102494.70
2019-01-10T14:42:44.786Z,102495.15
2019-01-10T14:45:14.660Z,102480.10
2019-01-10T14:47:43.692Z,102493.52
2019-01-10T14:50:12.784Z,102484.52
2019-01-10T14:52:41.797Z,102486.23
2019-01-10T14:55:11.756Z,102493.39
2019-01-10T14:57:40.778Z,102497.13
2019-01-10T15:00:14.140Z,102502.27
2019-01-10T15:02:43.152Z,102495.23
2019-01-10T15:05:12.315Z,102483.52
2019-01-10T15:07:41.395Z,102482.98
2019-01-10T15:10:10.582Z,102477.63
2019-01-10T15:12:39.677Z,102487.39
2019-01-10T15:15:11.738Z,102478.61
2019-01-10T15:17:40.786Z,102477.95
2019-01-10T15:20:30.975Z,102480.06
2019-01-10T15:23:00.016Z,102474.56
2019-01-10T15:25:29.079Z,102476.32
2019-01-10T15:27:58.114Z,102468.80
2019-01-10T15:30:28.448Z,102463.44
2019-01-10T15:32:57.501Z,102460.47
2019-01-10T15:35:26.534Z,102461.15
2019-01-10T15:37:55.694Z,102463.34
2019-01-10T15:40:27.074Z,102450.66
2019-01-10T15:42:56.100Z,102457.32
2019-01-10T15:45:25.153Z,102450.57
2019-01-10T15:47:54.218Z,102443.00
2019-01-10T15:50:23.218Z,102442.06
2019-01-10T15:52:52.247Z,102450.31
2019-01-10T15:55:21.415Z,102436.53
2019-01-10T15:57:50.538Z,102432.02
2019-01-10T16:00:21.221Z,102446.34
2019-01-10T16:02:50.965Z,102434.46
2019-01-10T16:05:20.329Z,102441.98
2019-01-10T16:07:50.452Z,102433.39
2019-01-10T16:10:20.065Z,102429.39
2019-01-10T16:12:49.780Z,102432.85
2019-01-10T16:15:20.772Z,102427.63
2019-01-10T16:17:49.825Z,102423.58
2019-01-10T16:20:18.828Z,102423.75
2019-01-10T16:22:48.286Z,102414.12
2019-01-10T16:25:17.864Z,102411.59
2019-01-10T16:27:46.981Z,102410.38
2019-01-10T16:30:21.338Z,102412.49
2019-01-10T16:32:50.358Z,102407.41
2019-01-10T16:35:19.360Z,102409.89
2019-01-10T16:37:48.526Z,102408.71
2019-01-10T16:40:17.819Z,102402.37
2019-01-10T16:42:46.929Z,102401.52
2019-01-10T16:45:19.267Z,102400.53
2019-01-10T16:47:48.277Z,102398.38
2019-01-10T16:50:17.634Z,102401.38
2019-01-10T16:52:46.946Z,102398.09
2019-01-10T16:55:16.220Z,102398.81
2019-01-10T16:57:45.271Z,102398.41
2019-01-10T17:00:22.243Z,102390.08
2019-01-10T17:02:51.251Z,102393.54
2019-01-10T17:05:20.293Z,102393.59
2019-01-10T17:07:49.303Z,102388.73
2019-01-10T17:10:18.490Z,102386.13
2019-01-10T17:12:47.494Z,102382.52
2019-01-10T17:15:17.288Z,102382.07
2019-01-10T17:17:46.440Z,102374.91
2019-01-10T17:20:17.977Z,102379.10
2019-01-10T17:22:47.118Z,102377.48
2019-01-10T17:25:16.361Z,102376.17
2019-01-10T17:27:45.394Z,102373.78
2019-01-10T17:30:25.588Z,102367.16
2019-01-10T17:32:54.676Z,102360.08
2019-01-10T17:35:25.924Z,102350.72
2019-01-10T17:37:54.999Z,102352.44
2019-01-10T17:40:24.324Z,102349.83
2019-01-10T17:42:53.854Z,102351.09
2019-01-10T17:45:25.017Z,102354.83
2019-01-10T17:47:54.061Z,102353.08
2019-01-10T17:50:23.104Z,102351.01
2019-01-10T17:52:52.242Z,102346.50
2019-01-10T17:55:21.362Z,102350.08
2019-01-10T17:57:50.400Z,102344.78
2019-01-10T18:00:22.220Z,102348.66
2019-01-10T18:02:51.266Z,102347.63
2019-01-10T18:05:20.284Z,102354.66
2019-01-10T18:07:49.662Z,102353.53
2019-01-10T18:10:19.618Z,102349.22
2019-01-10T18:12:48.874Z,102343.44
2019-01-10T18:15:20.404Z,102349.91
2019-01-10T18:17:50.378Z,102349.26
2019-01-10T18:20:28.426Z,102345.88
2019-01-10T18:22:57.477Z,102341.41
2019-01-10T18:25:26.575Z,102345.88
2019-01-10T18:27:55.633Z,102351.01
2019-01-10T18:30:24.742Z,102344.22
2019-01-10T18:32:53.795Z,102341.78
2019-01-10T18:35:26.555Z,102340.03
2019-01-10T18:37:53.800Z,102332.51
2019-01-10T18:40:22.831Z,102337.42
2019-01-10T18:42:51.886Z,102328.64
2019-01-10T18:45:23.536Z,102334.98
2019-01-10T18:47:57.137Z,102329.98
2019-01-10T18:50:24.938Z,102328.92
2019-01-10T18:52:53.927Z,102330.67
2019-01-10T18:55:22.973Z,102334.58
2019-01-10T18:57:52.036Z,102329.17
2019-01-10T19:00:25.812Z,102329.41
2019-01-10T19:02:55.147Z,102325.14
2019-01-10T19:05:24.190Z,102329.86
2019-01-10T19:07:53.196Z,102330.76
2019-01-10T19:10:22.609Z,102332.30
2019-01-10T19:12:51.774Z,102330.92
2019-01-10T19:15:20.789Z,102330.67
2019-01-10T19:17:49.981Z,102329.78
2019-01-10T19:20:26.664Z,102331.98
2019-01-10T19:22:57.010Z,102332.55
2019-01-10T19:25:26.166Z,102322.47
2019-01-10T19:27:55.285Z,102320.19
2019-01-10T19:30:26.612Z,102328.97
2019-01-10T19:32:56.072Z,102326.69
2019-01-10T19:35:25.161Z,102320.02
2019-01-10T19:37:54.588Z,102325.43
2019-01-10T19:40:23.946Z,102323.48
2019-01-10T19:42:53.001Z,102318.69
2019-01-10T19:45:22.829Z,102320.91
2019-01-10T19:47:51.906Z,102322.59
2019-01-10T19:50:22.865Z,102312.46
2019-01-10T19:52:51.980Z,102314.17
2019-01-10T19:55:22.011Z,102311.65
2019-01-10T19:57:51.217Z,102302.83
2019-01-10T20:00:41.182Z,102304.09
2019-01-10T20:03:10.361Z,102291.40
2019-01-10T20:05:39.378Z,102300.95
2019-01-10T20:08:08.417Z,102289.69
2019-01-10T20:10:37.823Z,102283.84
2019-01-10T20:13:06.914Z,102288.23
2019-01-10T20:15:35.966Z,102285.30
2019-01-10T20:18:05.239Z,102280.42
2019-01-10T20:20:39.580Z,102276.03
2019-01-10T20:23:10.537Z,102276.77
2019-01-10T20:25:39.917Z,102276.97
2019-01-10T20:28:09.196Z,102275.22
2019-01-10T20:30:38.483Z,102272.41
2019-01-10T20:33:07.602Z,102277.26
2019-01-10T20:35:36.733Z,102270.63
2019-01-10T20:38:06.115Z,102271.00
2019-01-10T20:40:35.163Z,102273.88
2019-01-10T20:43:04.409Z,102269.66
2019-01-10T20:45:33.419Z,102264.90
2019-01-10T20:48:02.481Z,102268.31
2019-01-10T20:50:31.540Z,102260.39
2019-01-10T20:53:00.589Z,102260.47
2019-01-10T20:55:29.598Z,102254.24
2019-01-10T20:57:58.613Z,102262.78
2019-01-10T21:00:29.114Z,102261.52
2019-01-10T21:02:58.208Z,102251.80
2019-01-10T21:05:27.741Z,102249.28
2019-01-10T21:07:56.752Z,102252.61
2019-01-10T21:10:25.986Z,102246.91
2019-01-10T21:12:55.060Z,102248.25
2019-01-10T21:15:27.689Z,102246.25
2019-01-10T21:17:56.866Z,102250.03
2019-01-10T21:20:25.976Z,102242.06
2019-01-10T21:22:55.098Z,102244.25
2019-01-10T21:25:24.140Z,102243.47
2019-01-10T21:27:53.206Z,102234.53
2019-01-10T21:30:22.745Z,102232.61
2019-01-10T21:32:51.750Z,102224.23
2019-01-10T21:35:21.180Z,102222.08
2019-01-10T21:37:50.255Z,102213.17
2019-01-10T21:40:21.214Z,102210.28
2019-01-10T21:42:51.938Z,102206.98
2019-01-10T21:45:21.250Z,102199.08
2019-01-10T21:47:50.257Z,102201.20
2019-01-10T21:50:21.989Z,102207.91
2019-01-10T21:52:51.373Z,102200.68
2019-01-10T21:55:20.912Z,102197.30
2019-01-10T21:57:50.133Z,102196.59
2019-01-10T22:00:23.427Z,102189.33
2019-01-10T22:02:52.567Z,102191.45
2019-01-10T22:05:21.600Z,102183.09
2019-01-10T22:07:50.654Z,102183.58
2019-01-10T22:10:19.839Z,102183.17
2019-01-10T22:12:48.907Z,102180.31
2019-01-10T22:15:18.400Z,102175.27
2019-01-10T22:17:47.413Z,102167.70
2019-01-10T22:20:16.997Z,102171.48
2019-01-10T22:22:46.002Z,102162.05
2019-01-10T22:25:15.051Z,102159.70
2019-01-10T22:27:44.135Z,102152.57
2019-01-10T22:30:16.108Z,102159.86
2019-01-10T22:32:45.141Z,102162.52
2019-01-10T22:35:16.059Z,102150.66
2019-01-10T22:37:45.063Z,102160.75
2019-01-10T22:40:17.149Z,102154.14
2019-01-10T22:42:46.118Z,102149.91
2019-01-10T22:45:16.323Z,102146.16
2019-01-10T22:47:45.367Z,102138.63
2019-01-10T22:50:17.480Z,102134.53
2019-01-10T22:52:46.491Z,102139.58
2019-01-10T22:55:16.081Z,102138.70
2019-01-10T22:57:45.088Z,102135.83
2019-01-10T23:01:09.424Z,102152.33
2019-01-10T23:03:41.055Z,102147.72
2019-01-10T23:06:10.081Z,102141.41
2019-01-10T23:08:46.384Z,102143.50
2019-01-10T23:11:20.454Z,102138.89
2019-01-10T23:13:57.581Z,102133.09
2019-01-10T23:16:27.537Z,102132.23
2019-01-10T23:18:56.540Z,102127.73
2019-01-10T23:21:25.968Z,102118.39
2019-01-10T23:24:12.441Z,102110.06
2019-01-10T23:26:44.686Z,102107.16
2019-01-10T23:29:13.714Z,102101.36
2019-01-10T23:31:42.721Z,102102.30
2019-01-10T23:34:12.062Z,102093.09
2019-01-10T23:36:41.203Z,102097.31
2019-01-10T23:39:28.186Z,102083.91
2019-01-10T23:41:58.286Z,102079.77
2019-01-10T23:44:27.307Z,102079.00
2019-01-10T23:46:56.353Z,102076.95
2019-01-10T23:49:25.374Z,102063.14
2019-01-10T23:51:54.437Z,102057.22
2019-01-10T23:54:23.491Z,102055.16
2019-01-10T23:56:52.529Z,102055.73
2019-01-10T23:59:21.552Z,102051.60
